Nottingham - western half: Past 24 Hour Conditions

 

Iqaluit Airport

02:00 PM EDT 24 October 2014
This table is a summary of hourly weather conditions for the past 24 hours.
Date / Time
(EDT)
Wind(knots) Conditions Visibility(km) Pressure(kPa) Air tempC) Relative humidity(%) Dew pointC) Wind Chill
24 October 2014
14:00 NW 13 Light Snow 24 102.4 -9 70 -13 -17
13:00 NNW 14 Mostly Cloudy 24 102.4 -8 70 -13 -17
12:00 NW 12 Mostly Cloudy 24 102.4 -8 71 -13 -16
11:00 NW 13 Mostly Cloudy 24 102.4 -8 71 -13 -17
10:00 NW 14 gust 20 Mostly Cloudy 40 102.4 -9 72 -13 -18
9:00 NW 9 Mostly Cloudy 40 102.4 -9 71 -14 -16
8:00 NNW 16 gust 21 Light Snow 24 102.3 -9 70 -14 -18
7:00 NNW 13 Light Snow 16 102.2 -9 71 -13 -17
6:00 NW 11 gust 17 Light Snow 16 102.2 -9 73 -13 -17
5:00 NW 20 Light Snow 24 102.1 -9 75 -12 -19
4:00 NW 21 gust 27 Light Snow 24 102.1 -8 73 -12 -18
3:00 NW 19 gust 28 Light Snow 24 102.0 -8 68 -13 -18
2:00 WNW 19 gust 25 Light Snow 24 102.0 -8 67 -13 -18
1:00 NW 16 gust 21 Light Snow 24 102.0 -8 70 -13 -17
0:00 NW 17 gust 26 Light Snow 24 101.9 -8 70 -13 -17
23 October 2014
23:00 NW 19 Light Snow 24 102.0 -8 70 -13 -18
22:00 NW 10 Light Snow 24 102.0 -9 76 -13 -16
21:00 NNW 4 Light Snow 24 102.0 -10 75 -13 -14
20:00 NW 6 Light Snow 24 102.0 -10 73 -14 -16
19:00 WNW 12 Light Snow 24 102.0 -11 71 -15 -19
18:00 NW 13 gust 20 Light Snow 24 102.0 -11 67 -16 -19
17:00 NW 20 Cloudy 32 101.9 -11 71 -15 -22
16:00 NNW 21 gust 26 Partly Cloudy 40 101.8 -13 69 -17 -24
15:00 NNW 19 Mainly Sunny 40 101.8 -13 68 -18 -24
14:00 NW 23 gust 30 Mainly Sunny 32 101.7 -13 68 -17 -25
 
Map of Arctic - Eastern Arctic marine weather areas Baker Lake Airport Chesterfield Inlet Airport Coral Harbour Airport Gjoa Haven Airport Kugaaruk Airport Rankin Inlet Airport Shepherd Bay Airport Whale Cove Airport Arctic Bay Brevoort Island Qikiqtarjuaq Airport Cape Dorset Airport Cape Dyer Cape Hooper Clyde Airport Grise Fiord Airport Hall Beach Airport Igloolik Airport Iqaluit Airport Longstaff Bluff Pangnirtung Airport Pond Inlet Airport Repulse Bay Airport Resolute Airport Resolution Island Rowley Island Airport Taloyoak Airport Wager Bay Akulivik Airport Ivujivik Airport Puvirnituq Airport Kangiqsujuaq Airport Kangirsuk Airport Quaqtaq Airport Tasiujaq Airport Cape Kakkiviak Cape Kiglapait Nain Airport Saglek Cape Mercy Kimmirut Airport Aupaluk Airport Salluit Airport Kangiqsualujjuaq Airport Fort Ross
Legend: buoyBuoy land stationLand Station